KMKO/MKO METAR and TAF weather

Enter ICAO airport designator
Station Type Date Time Source
KMKO METAR 2019/08/20 08:53 UTC NOAA

KMKO 200853Z AUTO 14005KT 10SM CLR 26/23 A3000 RMK AO2 SLP149 T02560233 55001


Station Type Date Time Source
KMKO Decoded METAR 2019/08/20 08:53 UTC NOAA

MUSKOGEE DAVIS FIELD, OK, United States (KMKO) 35-39N 95-22W 185M
Aug 20, 2019 - 04:53 AM EDT / 2019.08.20 0853 UTC
Wind: from the SE (140 degrees) at 6 MPH (5 KT):0
Visibility: 10 mile(s):0
Sky conditions: clear
Temperature: 78.1 F (25.6 C)
Dew Point: 73.9 F (23.3 C)
Relative Humidity: 87%
Pressure (altimeter): 30 in. Hg (1015 hPa)
Pressure tendency: 0.00 inches (0.1 hPa) lower than three hours ago
ob: KMKO 200853Z AUTO 14005KT 10SM CLR 26/23 A3000 RMK AO2 SLP149 T02560233 55001
cycle: 9

Station Type Date Time Source
KMKO TAF UTC NOAA

Error!

Example: see airport list